sensor_id;sensor_type;location;lat;lon;timestamp;pressure;altitude;pressure_sealevel;temperature;humidity
21879;BME280;27908;42.708;23.278;2023-01-29T00:02:07;62661.09;;;0.44;100.00
21879;BME280;27908;42.708;23.278;2023-01-29T00:05:04;62588.91;;;0.42;100.00
21879;BME280;27908;42.708;23.278;2023-01-29T00:11:16;62648.56;;;0.44;100.00
21879;BME280;27908;42.708;23.278;2023-01-29T00:17:27;62680.16;;;0.45;100.00
21879;BME280;27908;42.708;23.278;2023-01-29T00:22:37;62585.28;;;0.34;100.00
21879;BME280;27908;42.708;23.278;2023-01-29T00:25:02;62641.00;;;0.41;100.00
21879;BME280;27908;42.708;23.278;2023-01-29T00:27:28;62642.03;;;0.42;100.00
21879;BME280;27908;42.708;23.278;2023-01-29T00:29:53;62645.53;;;0.41;100.00
21879;BME280;27908;42.708;23.278;2023-01-29T00:32:37;62646.50;;;0.39;100.00
21879;BME280;27908;42.708;23.278;2023-01-29T00:35:03;62654.59;;;0.45;100.00
21879;BME280;27908;42.708;23.278;2023-01-29T00:37:29;62663.00;;;0.38;100.00
21879;BME280;27908;42.708;23.278;2023-01-29T00:39:55;62622.03;;;0.45;100.00
21879;BME280;27908;42.708;23.278;2023-01-29T00:42:20;62644.44;;;0.37;100.00
21879;BME280;27908;42.708;23.278;2023-01-29T00:45:04;62608.28;;;0.32;100.00
21879;BME280;27908;42.708;23.278;2023-01-29T00:47:30;62597.16;;;0.26;100.00
21879;BME280;27908;42.708;23.278;2023-01-29T00:50:02;62692.28;;;0.23;100.00
21879;BME280;27908;42.708;23.278;2023-01-29T00:52:28;62664.44;;;0.35;100.00
21879;BME280;27908;42.708;23.278;2023-01-29T00:54:56;62608.59;;;0.22;100.00
21879;BME280;27908;42.708;23.278;2023-01-29T00:57:23;62610.72;;;0.27;100.00
21879;BME280;27908;42.708;23.278;2023-01-29T00:59:49;62628.78;;;0.30;100.00
21879;BME280;27908;42.708;23.278;2023-01-29T01:02:14;62601.63;;;0.23;100.00
21879;BME280;27908;42.708;23.278;2023-01-29T01:04:58;62795.03;;;0.04;100.00
21879;BME280;27908;42.708;23.278;2023-01-29T01:07:27;62652.22;;;0.23;100.00
21879;BME280;27908;42.708;23.278;2023-01-29T01:09:53;62634.72;;;0.26;100.00
21879;BME280;27908;42.708;23.278;2023-01-29T01:12:37;62625.56;;;0.17;100.00
21879;BME280;27908;42.708;23.278;2023-01-29T01:15:03;62642.28;;;0.28;100.00
21879;BME280;27908;42.708;23.278;2023-01-29T01:17:28;62631.88;;;0.35;100.00
21879;BME280;27908;42.708;23.278;2023-01-29T01:19:54;62618.88;;;0.35;100.00
21879;BME280;27908;42.708;23.278;2023-01-29T01:22:19;62672.44;;;0.33;100.00
21879;BME280;27908;42.708;23.278;2023-01-29T01:24:45;62594.63;;;0.23;100.00
21879;BME280;27908;42.708;23.278;2023-01-29T01:27:12;62655.88;;;0.32;100.00
21879;BME280;27908;42.708;23.278;2023-01-29T01:29:37;62627.66;;;0.24;100.00
21879;BME280;27908;42.708;23.278;2023-01-29T01:32:04;62625.16;;;0.24;100.00
21879;BME280;27908;42.708;23.278;2023-01-29T01:34:30;62599.44;;;0.13;100.00
21879;BME280;27908;42.708;23.278;2023-01-29T01:36:56;62624.25;;;0.28;100.00
21879;BME280;27908;42.708;23.278;2023-01-29T01:39:22;62611.38;;;0.08;100.00
21879;BME280;27908;42.708;23.278;2023-01-29T01:41:48;62604.91;;;0.11;100.00
21879;BME280;27908;42.708;23.278;2023-01-29T01:44:50;62636.69;;;0.23;100.00
21879;BME280;27908;42.708;23.278;2023-01-29T01:47:16;62640.66;;;0.22;100.00
21879;BME280;27908;42.708;23.278;2023-01-29T01:49:44;62555.25;;;0.04;100.00
21879;BME280;27908;42.708;23.278;2023-01-29T01:52:10;62592.44;;;0.14;100.00
21879;BME280;27908;42.708;23.278;2023-01-29T01:54:37;62635.56;;;0.17;100.00
21879;BME280;27908;42.708;23.278;2023-01-29T01:57:06;62590.00;;;0.16;100.00
21879;BME280;27908;42.708;23.278;2023-01-29T01:59:42;62643.03;;;0.14;100.00
21879;BME280;27908;42.708;23.278;2023-01-29T02:02:11;62616.59;;;0.20;100.00
21879;BME280;27908;42.708;23.278;2023-01-29T02:04:56;62613.97;;;0.13;100.00
21879;BME280;27908;42.708;23.278;2023-01-29T02:07:46;62653.75;;;0.25;100.00
21879;BME280;27908;42.708;23.278;2023-01-29T02:10:38;62644.59;;;0.18;100.00
21879;BME280;27908;42.708;23.278;2023-01-29T02:13:06;62584.69;;;-0.01;100.00
21879;BME280;27908;42.708;23.278;2023-01-29T02:15:32;62625.47;;;0.12;100.00
21879;BME280;27908;42.708;23.278;2023-01-29T02:17:58;62611.78;;;0.03;100.00
21879;BME280;27908;42.708;23.278;2023-01-29T02:20:26;62643.13;;;0.19;100.00
21879;BME280;27908;42.708;23.278;2023-01-29T02:37:02;62601.31;;;0.05;100.00
21879;BME280;27908;42.708;23.278;2023-01-29T02:39:38;62603.44;;;0.12;100.00
21879;BME280;27908;42.708;23.278;2023-01-29T02:42:13;62627.59;;;0.19;100.00
21879;BME280;27908;42.708;23.278;2023-01-29T02:45:13;62593.28;;;0.05;100.00
21879;BME280;27908;42.708;23.278;2023-01-29T02:47:47;62650.81;;;0.02;100.00
21879;BME280;27908;42.708;23.278;2023-01-29T02:52:56;62626.56;;;0.18;100.00
21879;BME280;27908;42.708;23.278;2023-01-29T02:55:29;62672.09;;;0.16;100.00
21879;BME280;27908;42.708;23.278;2023-01-29T02:58:08;62647.41;;;0.06;100.00
21879;BME280;27908;42.708;23.278;2023-01-29T03:00:38;62643.03;;;0.14;100.00
21879;BME280;27908;42.708;23.278;2023-01-29T03:11:05;62639.78;;;0.01;100.00
21879;BME280;27908;42.708;23.278;2023-01-29T03:13:39;62589.00;;;0.18;100.00
21879;BME280;27908;42.708;23.278;2023-01-29T03:18:48;62613.50;;;0.15;100.00
21879;BME280;27908;42.708;23.278;2023-01-29T03:21:31;62624.44;;;0.11;100.00
21879;BME280;27908;42.708;23.278;2023-01-29T03:27:45;62605.56;;;0.19;100.00
21879;BME280;27908;42.708;23.278;2023-01-29T03:30:33;62645.09;;;0.16;100.00
21879;BME280;27908;42.708;23.278;2023-01-29T03:33:20;62595.97;;;0.15;100.00
21879;BME280;27908;42.708;23.278;2023-01-29T03:35:57;62561.75;;;0.06;100.00
21879;BME280;27908;42.708;23.278;2023-01-29T03:38:25;62639.47;;;0.11;100.00
21879;BME280;27908;42.708;23.278;2023-01-29T03:41:22;62635.38;;;0.07;100.00
21879;BME280;27908;42.708;23.278;2023-01-29T03:43:59;62640.94;;;0.10;100.00
21879;BME280;27908;42.708;23.278;2023-01-29T03:46:50;62632.06;;;0.18;100.00
21879;BME280;27908;42.708;23.278;2023-01-29T03:54:53;62587.59;;;0.24;100.00
21879;BME280;27908;42.708;23.278;2023-01-29T03:57:30;62635.19;;;0.24;100.00
21879;BME280;27908;42.708;23.278;2023-01-29T04:05:17;62654.25;;;0.25;100.00
21879;BME280;27908;42.708;23.278;2023-01-29T04:07:44;62655.81;;;0.29;100.00
21879;BME280;27908;42.708;23.278;2023-01-29T04:10:18;62611.50;;;0.15;100.00
21879;BME280;27908;42.708;23.278;2023-01-29T04:12:57;62606.63;;;0.23;100.00
21879;BME280;27908;42.708;23.278;2023-01-29T04:15:27;62643.13;;;0.19;100.00
21879;BME280;27908;42.708;23.278;2023-01-29T04:17:54;62649.75;;;0.26;100.00
21879;BME280;27908;42.708;23.278;2023-01-29T04:20:20;62635.22;;;0.26;100.00
21879;BME280;27908;42.708;23.278;2023-01-29T04:22:48;62609.78;;;0.31;100.00
21879;BME280;27908;42.708;23.278;2023-01-29T04:25:22;62623.06;;;0.17;100.00
21879;BME280;27908;42.708;23.278;2023-01-29T04:31:09;62602.25;;;0.01;100.00
21879;BME280;27908;42.708;23.278;2023-01-29T04:36:29;62599.91;;;0.11;100.00
21879;BME280;27908;42.708;23.278;2023-01-29T04:41:24;62605.81;;;0.05;100.00
21879;BME280;27908;42.708;23.278;2023-01-29T04:51:48;62602.25;;;0.01;100.00
21879;BME280;27908;42.708;23.278;2023-01-29T04:59:32;62612.84;;;0.07;100.00
21879;BME280;27908;42.708;23.278;2023-01-29T05:02:00;62608.53;;;-0.12;100.00
21879;BME280;27908;42.708;23.278;2023-01-29T05:04:31;62601.31;;;0.05;100.00
21879;BME280;27908;42.708;23.278;2023-01-29T05:07:01;62641.97;;;0.11;100.00
21879;BME280;27908;42.708;23.278;2023-01-29T05:09:28;62600.41;;;0.12;100.00
21879;BME280;27908;42.708;23.278;2023-01-29T05:11:54;62631.97;;;0.11;100.00
21879;BME280;27908;42.708;23.278;2023-01-29T05:14:21;62630.47;;;0.12;100.00
21879;BME280;27908;42.708;23.278;2023-01-29T05:16:51;62627.63;;;0.21;100.00
21879;BME280;27908;42.708;23.278;2023-01-29T05:19:17;62671.63;;;0.18;100.00
21879;BME280;27908;42.708;23.278;2023-01-29T05:21:45;62602.59;;;0.21;100.00
21879;BME280;27908;42.708;23.278;2023-01-29T05:24:24;62638.63;;;0.20;100.00
21879;BME280;27908;42.708;23.278;2023-01-29T05:26:52;62658.00;;;0.12;100.00
21879;BME280;27908;42.708;23.278;2023-01-29T05:29:38;62580.56;;;-0.07;100.00
21879;BME280;27908;42.708;23.278;2023-01-29T05:32:05;62628.34;;;0.05;100.00
21879;BME280;27908;42.708;23.278;2023-01-29T05:34:30;62591.97;;;0.16;100.00
21879;BME280;27908;42.708;23.278;2023-01-29T05:36:55;62582.78;;;0.04;100.00
21879;BME280;27908;42.708;23.278;2023-01-29T05:39:21;62637.47;;;0.11;100.00
21879;BME280;27908;42.708;23.278;2023-01-29T05:41:46;62619.47;;;0.13;100.00
21879;BME280;27908;42.708;23.278;2023-01-29T05:44:12;62627.06;;;0.18;100.00
21879;BME280;27908;42.708;23.278;2023-01-29T05:46:38;62616.56;;;0.18;100.00
21879;BME280;27908;42.708;23.278;2023-01-29T05:49:04;62591.47;;;0.15;100.00
21879;BME280;27908;42.708;23.278;2023-01-29T05:51:29;62600.34;;;0.07;100.00
21879;BME280;27908;42.708;23.278;2023-01-29T05:53:54;62595.00;;;0.16;100.00
21879;BME280;27908;42.708;23.278;2023-01-29T05:56:20;62608.81;;;0.05;100.00
21879;BME280;27908;42.708;23.278;2023-01-29T05:58:45;62629.97;;;0.11;100.00
21879;BME280;27908;42.708;23.278;2023-01-29T06:01:16;62604.13;;;0.23;100.00
21879;BME280;27908;42.708;23.278;2023-01-29T06:03:43;62636.69;;;0.23;100.00
21879;BME280;27908;42.708;23.278;2023-01-29T06:06:09;62631.25;;;0.27;100.00
21879;BME280;27908;42.708;23.278;2023-01-29T06:08:35;62623.22;;;0.27;100.00
21879;BME280;27908;42.708;23.278;2023-01-29T06:11:01;62608.31;;;0.34;100.00
21879;BME280;27908;42.708;23.278;2023-01-29T06:13:26;62676.78;;;0.25;100.00
21879;BME280;27908;42.708;23.278;2023-01-29T06:15:52;62626.78;;;0.30;100.00
21879;BME280;27908;42.708;23.278;2023-01-29T06:21:03;62673.63;;;0.44;100.00
21879;BME280;27908;42.708;23.278;2023-01-29T06:23:29;62626.00;;;0.41;100.00
21879;BME280;27908;42.708;23.278;2023-01-29T06:26:01;62614.53;;;0.45;100.00
21879;BME280;27908;42.708;23.278;2023-01-29T06:28:28;62654.44;;;0.35;100.00
21879;BME280;27908;42.708;23.278;2023-01-29T06:30:56;62605.69;;;0.27;100.00
21879;BME280;27908;42.708;23.278;2023-01-29T06:33:22;62632.78;;;0.29;100.00
21879;BME280;27908;42.708;23.278;2023-01-29T06:35:47;62672.38;;;0.31;100.00
21879;BME280;27908;42.708;23.278;2023-01-29T06:38:13;62607.19;;;0.26;100.00
21879;BME280;27908;42.708;23.278;2023-01-29T06:40:38;62605.22;;;0.29;100.00
21879;BME280;27908;42.708;23.278;2023-01-29T06:43:03;62678.13;;;0.43;100.00
21879;BME280;27908;42.708;23.278;2023-01-29T06:45:29;62630.19;;;0.24;100.00
21879;BME280;27908;42.708;23.278;2023-01-29T06:47:55;62610.19;;;0.26;100.00
21879;BME280;27908;42.708;23.278;2023-01-29T06:50:20;62629.03;;;0.44;100.00
21879;BME280;27908;42.708;23.278;2023-01-29T06:52:46;62668.72;;;0.49;100.00
21879;BME280;27908;42.708;23.278;2023-01-29T06:55:11;62655.88;;;0.61;100.00
21879;BME280;27908;42.708;23.278;2023-01-29T06:57:36;62620.09;;;0.48;100.00
21879;BME280;27908;42.708;23.278;2023-01-29T07:00:03;62677.97;;;0.36;100.00
21879;BME280;27908;42.708;23.278;2023-01-29T07:02:28;62638.09;;;0.46;100.00
21879;BME280;27908;42.708;23.278;2023-01-29T07:04:54;62625.25;;;0.58;100.00
21879;BME280;27908;42.708;23.278;2023-01-29T07:07:19;62656.00;;;0.68;100.00
21879;BME280;27908;42.708;23.278;2023-01-29T07:09:44;62655.97;;;0.66;100.00
21879;BME280;27908;42.708;23.278;2023-01-29T07:12:10;62663.19;;;0.77;100.00
21879;BME280;27908;42.708;23.278;2023-01-29T07:14:36;62663.53;;;0.68;100.00
21879;BME280;27908;42.708;23.278;2023-01-29T07:17:02;62636.94;;;0.67;100.00
21879;BME280;27908;42.708;23.278;2023-01-29T07:19:27;62667.53;;;0.67;100.00
21879;BME280;27908;42.708;23.278;2023-01-29T07:21:53;62679.25;;;0.78;100.00
21879;BME280;27908;42.708;23.278;2023-01-29T07:24:18;62646.84;;;0.59;100.00
21879;BME280;27908;42.708;23.278;2023-01-29T07:26:44;62661.31;;;0.56;100.00
21879;BME280;27908;42.708;23.278;2023-01-29T07:29:09;62671.94;;;0.62;100.00
21879;BME280;27908;42.708;23.278;2023-01-29T07:31:35;62711.88;;;0.81;100.00
21879;BME280;27908;42.708;23.278;2023-01-29T07:34:00;62676.28;;;0.80;100.00
21879;BME280;27908;42.708;23.278;2023-01-29T07:36:26;62699.91;;;0.84;100.00
21879;BME280;27908;42.708;23.278;2023-01-29T07:38:52;62672.69;;;0.77;100.00
21879;BME280;27908;42.708;23.278;2023-01-29T07:41:17;62682.56;;;0.67;100.00
21879;BME280;27908;42.708;23.278;2023-01-29T07:43:43;62651.47;;;0.66;100.00
21879;BME280;27908;42.708;23.278;2023-01-29T07:46:08;62674.13;;;0.71;100.00
21879;BME280;27908;42.708;23.278;2023-01-29T07:48:34;62687.13;;;0.69;100.00
21879;BME280;27908;42.708;23.278;2023-01-29T07:51:00;62652.50;;;0.67;100.00
21879;BME280;27908;42.708;23.278;2023-01-29T07:53:26;62693.22;;;0.75;100.00
21879;BME280;27908;42.708;23.278;2023-01-29T07:55:52;62625.63;;;0.80;100.00
21879;BME280;27908;42.708;23.278;2023-01-29T07:58:18;62677.75;;;0.79;100.00
21879;BME280;27908;42.708;23.278;2023-01-29T08:00:43;62706.31;;;0.78;100.00
21879;BME280;27908;42.708;23.278;2023-01-29T08:03:14;62684.22;;;0.76;100.00
21879;BME280;27908;42.708;23.278;2023-01-29T08:05:41;62674.78;;;0.81;100.00
21879;BME280;27908;42.708;23.278;2023-01-29T08:08:07;62687.38;;;0.84;100.00
21879;BME280;27908;42.708;23.278;2023-01-29T08:10:37;62696.50;;;0.90;100.00
21879;BME280;27908;42.708;23.278;2023-01-29T08:13:03;62667.44;;;0.91;100.00
21879;BME280;27908;42.708;23.278;2023-01-29T08:15:29;62695.34;;;0.82;100.00
21879;BME280;27908;42.708;23.278;2023-01-29T08:17:56;62669.91;;;0.89;100.00
21879;BME280;27908;42.708;23.278;2023-01-29T08:20:21;62706.19;;;1.00;100.00
21879;BME280;27908;42.708;23.278;2023-01-29T08:22:47;62668.25;;;0.80;100.00
21879;BME280;27908;42.708;23.278;2023-01-29T08:25:13;62750.47;;;1.08;100.00
21879;BME280;27908;42.708;23.278;2023-01-29T08:27:39;62748.41;;;1.04;100.00
21879;BME280;27908;42.708;23.278;2023-01-29T08:30:06;62705.63;;;0.97;100.00
21879;BME280;27908;42.708;23.278;2023-01-29T08:32:32;62705.50;;;0.89;100.00
21879;BME280;27908;42.708;23.278;2023-01-29T08:34:57;62711.00;;;0.87;100.00
21879;BME280;27908;42.708;23.278;2023-01-29T08:37:23;62693.44;;;0.87;100.00
21879;BME280;27908;42.708;23.278;2023-01-29T08:39:48;62692.50;;;0.91;100.00
21879;BME280;27908;42.708;23.278;2023-01-29T08:42:13;62697.03;;;0.93;100.00
21879;BME280;27908;42.708;23.278;2023-01-29T08:44:39;62723.19;;;0.97;100.00
21879;BME280;27908;42.708;23.278;2023-01-29T08:47:05;62705.03;;;0.91;100.00
21879;BME280;27908;42.708;23.278;2023-01-29T08:49:30;62707.53;;;0.91;100.00
21879;BME280;27908;42.708;23.278;2023-01-29T08:51:55;62712.25;;;1.03;100.00
21879;BME280;27908;42.708;23.278;2023-01-29T08:54:22;62748.47;;;1.09;100.00
21879;BME280;27908;42.708;23.278;2023-01-29T08:56:48;62715.22;;;1.01;100.00
21879;BME280;27908;42.708;23.278;2023-01-29T08:59:13;62723.19;;;0.97;100.00
21879;BME280;27908;42.708;23.278;2023-01-29T09:01:39;62740.72;;;0.97;100.00
21879;BME280;27908;42.708;23.278;2023-01-29T09:04:04;62695.56;;;0.94;100.00
21879;BME280;27908;42.708;23.278;2023-01-29T09:06:30;62735.38;;;1.06;100.00
21879;BME280;27908;42.708;23.278;2023-01-29T09:08:55;62705.50;;;1.18;100.00
21879;BME280;27908;42.708;23.278;2023-01-29T09:11:20;62715.38;;;1.08;100.00
21879;BME280;27908;42.708;23.278;2023-01-29T09:13:46;62683.53;;;1.24;100.00
21879;BME280;27908;42.708;23.278;2023-01-29T09:16:11;62744.56;;;1.15;100.00
21879;BME280;27908;42.708;23.278;2023-01-29T09:18:37;62718.41;;;1.11;100.00
21879;BME280;27908;42.708;23.278;2023-01-29T09:21:02;62717.84;;;1.06;100.00
21879;BME280;27908;42.708;23.278;2023-01-29T09:23:29;62729.41;;;1.07;100.00
21879;BME280;27908;42.708;23.278;2023-01-29T09:25:55;62720.97;;;1.14;100.00
21879;BME280;27908;42.708;23.278;2023-01-29T09:28:20;62753.06;;;1.13;100.00
21879;BME280;27908;42.708;23.278;2023-01-29T09:30:46;62733.00;;;1.42;100.00
21879;BME280;27908;42.708;23.278;2023-01-29T09:33:11;62707.44;;;1.44;100.00
21879;BME280;27908;42.708;23.278;2023-01-29T09:35:42;62734.31;;;1.03;100.00
21879;BME280;27908;42.708;23.278;2023-01-29T09:38:09;62747.41;;;1.06;100.00
21879;BME280;27908;42.708;23.278;2023-01-29T09:40:46;62688.31;;;1.11;100.00
21879;BME280;27908;42.708;23.278;2023-01-29T09:43:19;62702.66;;;1.28;100.00
21879;BME280;27908;42.708;23.278;2023-01-29T09:46:32;62761.13;;;1.43;100.00
21879;BME280;27908;42.708;23.278;2023-01-29T09:49:02;62727.19;;;1.25;100.00
21879;BME280;27908;42.708;23.278;2023-01-29T09:51:34;62725.84;;;1.36;100.00
21879;BME280;27908;42.708;23.278;2023-01-29T09:54:10;62753.28;;;1.26;100.00
21879;BME280;27908;42.708;23.278;2023-01-29T09:56:37;62698.53;;;1.21;100.00
21879;BME280;27908;42.708;23.278;2023-01-29T09:59:02;62700.88;;;1.11;100.00
21879;BME280;27908;42.708;23.278;2023-01-29T10:01:37;62709.13;;;1.24;100.00
21879;BME280;27908;42.708;23.278;2023-01-29T10:04:06;62690.50;;;1.21;100.00
21879;BME280;27908;42.708;23.278;2023-01-29T10:10:10;62761.28;;;1.24;100.00
21879;BME280;27908;42.708;23.278;2023-01-29T10:12:51;62735.50;;;1.13;100.00
21879;BME280;27908;42.708;23.278;2023-01-29T10:23:37;62752.09;;;1.15;100.00
21879;BME280;27908;42.708;23.278;2023-01-29T10:26:03;62697.41;;;1.15;100.00
21879;BME280;27908;42.708;23.278;2023-01-29T10:28:34;62729.94;;;1.10;100.00
21879;BME280;27908;42.708;23.278;2023-01-29T10:31:19;62695.06;;;0.94;100.00
21879;BME280;27908;42.708;23.278;2023-01-29T10:33:52;62693.91;;;0.85;100.00
21879;BME280;27908;42.708;23.278;2023-01-29T10:36:40;62720.22;;;0.99;100.00
21879;BME280;27908;42.708;23.278;2023-01-29T10:39:15;62742.28;;;0.98;100.00
21879;BME280;27908;42.708;23.278;2023-01-29T10:49:40;62702.25;;;0.76;100.00
21879;BME280;27908;42.708;23.278;2023-01-29T11:00:42;62682.84;;;0.84;100.00
21879;BME280;27908;42.708;23.278;2023-01-29T11:05:44;62680.44;;;0.89;100.00
21879;BME280;27908;42.708;23.278;2023-01-29T11:08:18;62710.31;;;1.06;100.00
21879;BME280;27908;42.708;23.278;2023-01-29T11:13:32;62728.44;;;1.11;100.00
21879;BME280;27908;42.708;23.278;2023-01-29T11:15:59;62717.75;;;1.01;100.00
21879;BME280;27908;42.708;23.278;2023-01-29T11:18:25;62733.34;;;1.04;100.00
21879;BME280;27908;42.708;23.278;2023-01-29T11:21:00;62713.50;;;1.16;100.00
21879;BME280;27908;42.708;23.278;2023-01-29T11:23:31;62756.50;;;1.09;100.00
21879;BME280;27908;42.708;23.278;2023-01-29T11:25:59;62691.16;;;1.00;100.00
21879;BME280;27908;42.708;23.278;2023-01-29T11:28:35;62660.59;;;1.02;100.00
21879;BME280;27908;42.708;23.278;2023-01-29T11:31:01;62713.47;;;1.14;100.00
21879;BME280;27908;42.708;23.278;2023-01-29T11:33:27;62729.66;;;1.22;100.00
21879;BME280;27908;42.708;23.278;2023-01-29T11:35:53;62694.97;;;1.18;100.00
21879;BME280;27908;42.708;23.278;2023-01-29T11:38:27;62775.81;;;1.23;100.00
21879;BME280;27908;42.708;23.278;2023-01-29T11:41:16;62738.13;;;1.18;100.00
21879;BME280;27908;42.708;23.278;2023-01-29T11:43:46;62740.44;;;1.38;100.00
21879;BME280;27908;42.708;23.278;2023-01-29T11:46:13;62716.44;;;1.43;100.00
21879;BME280;27908;42.708;23.278;2023-01-29T11:48:47;62726.84;;;1.34;100.00
21879;BME280;27908;42.708;23.278;2023-01-29T11:51:44;62753.13;;;1.16;100.00
21879;BME280;27908;42.708;23.278;2023-01-29T11:57:36;62725.75;;;1.28;100.00
21879;BME280;27908;42.708;23.278;2023-01-29T12:00:28;62799.34;;;1.48;100.00
21879;BME280;27908;42.708;23.278;2023-01-29T12:03:19;62747.16;;;1.49;100.00
21879;BME280;27908;42.708;23.278;2023-01-29T12:06:19;62752.47;;;1.66;100.00
21879;BME280;27908;42.708;23.278;2023-01-29T12:08:59;62885.28;;;1.54;100.00
21879;BME280;27908;42.708;23.278;2023-01-29T12:11:40;62811.91;;;1.77;100.00
21879;BME280;27908;42.708;23.278;2023-01-29T12:14:31;62757.81;;;1.54;100.00
21879;BME280;27908;42.708;23.278;2023-01-29T12:17:09;62754.47;;;1.66;100.00
21879;BME280;27908;42.708;23.278;2023-01-29T12:20:13;62723.13;;;1.52;100.00
21879;BME280;27908;42.708;23.278;2023-01-29T12:26:33;62758.44;;;1.62;100.00
21879;BME280;27908;42.708;23.278;2023-01-29T12:32:52;62781.75;;;1.75;100.00
21879;BME280;27908;42.708;23.278;2023-01-29T12:35:30;62795.22;;;1.71;100.00
21879;BME280;27908;42.708;23.278;2023-01-29T12:38:17;62804.44;;;1.82;100.00
21879;BME280;27908;42.708;23.278;2023-01-29T12:43:55;62825.53;;;1.81;100.00
21879;BME280;27908;42.708;23.278;2023-01-29T12:46:30;62778.13;;;1.69;100.00
21879;BME280;27908;42.708;23.278;2023-01-29T12:49:01;62779.56;;;1.95;100.00
21879;BME280;27908;42.708;23.278;2023-01-29T12:54:27;62768.25;;;1.79;100.00
21879;BME280;27908;42.708;23.278;2023-01-29T12:56:59;62770.81;;;1.52;100.00
21879;BME280;27908;42.708;23.278;2023-01-29T12:59:27;62775.75;;;1.47;100.00
21879;BME280;27908;42.708;23.278;2023-01-29T13:04:58;62771.03;;;1.65;100.00
21879;BME280;27908;42.708;23.278;2023-01-29T13:10:52;62786.72;;;1.43;100.00
21879;BME280;27908;42.708;23.278;2023-01-29T13:13:34;62760.38;;;1.59;100.00
21879;BME280;27908;42.708;23.278;2023-01-29T13:16:03;62774.09;;;1.68;100.00
21879;BME280;27908;42.708;23.278;2023-01-29T13:18:59;62779.91;;;1.56;100.00
21879;BME280;27908;42.708;23.278;2023-01-29T13:21:30;62736.44;;;1.39;100.00
21879;BME280;27908;42.708;23.278;2023-01-29T13:24:02;62760.59;;;1.42;100.00
21879;BME280;27908;42.708;23.278;2023-01-29T13:26:29;62716.81;;;1.34;100.00
21879;BME280;27908;42.708;23.278;2023-01-29T13:28:56;62787.28;;;1.46;100.00
21879;BME280;27908;42.708;23.278;2023-01-29T13:31:34;62782.91;;;1.54;100.00
21879;BME280;27908;42.708;23.278;2023-01-29T13:34:07;62759.31;;;1.56;100.00
21879;BME280;27908;42.708;23.278;2023-01-29T13:36:57;62717.50;;;1.44;100.00
21879;BME280;27908;42.708;23.278;2023-01-29T13:39:47;62739.84;;;1.32;100.00
21879;BME280;27908;42.708;23.278;2023-01-29T13:42:32;62747.56;;;1.42;100.00
21879;BME280;27908;42.708;23.278;2023-01-29T13:45:02;62729.34;;;1.34;100.00
21879;BME280;27908;42.708;23.278;2023-01-29T13:47:30;62726.25;;;1.29;100.00
21879;BME280;27908;42.708;23.278;2023-01-29T13:50:03;62776.94;;;1.29;100.00
21879;BME280;27908;42.708;23.278;2023-01-29T13:52:40;62778.38;;;1.26;100.00
21879;BME280;27908;42.708;23.278;2023-01-29T13:55:22;62689.09;;;1.27;100.00
21879;BME280;27908;42.708;23.278;2023-01-29T13:57:52;62722.16;;;1.25;100.00
21879;BME280;27908;42.708;23.278;2023-01-29T14:02:47;62729.53;;;1.15;100.00
21879;BME280;27908;42.708;23.278;2023-01-29T14:05:41;62744.88;;;1.32;100.00
21879;BME280;27908;42.708;23.278;2023-01-29T14:10:42;62704.66;;;1.27;100.00
21879;BME280;27908;42.708;23.278;2023-01-29T14:18:28;62704.22;;;1.32;100.00
21879;BME280;27908;42.708;23.278;2023-01-29T14:21:03;62704.22;;;1.32;100.00
21879;BME280;27908;42.708;23.278;2023-01-29T14:26:02;62708.44;;;1.14;100.00
21879;BME280;27908;42.708;23.278;2023-01-29T14:28:31;62744.38;;;1.05;100.00
21879;BME280;27908;42.708;23.278;2023-01-29T14:30:57;62729.47;;;1.12;100.00
21879;BME280;27908;42.708;23.278;2023-01-29T14:33:39;62700.03;;;1.20;100.00
21879;BME280;27908;42.708;23.278;2023-01-29T14:36:11;62730.09;;;1.18;100.00
21879;BME280;27908;42.708;23.278;2023-01-29T14:38:39;62735.84;;;1.04;100.00
21879;BME280;27908;42.708;23.278;2023-01-29T14:41:25;62704.66;;;0.98;100.00
21879;BME280;27908;42.708;23.278;2023-01-29T14:49:58;62683.19;;;1.04;100.00
21879;BME280;27908;42.708;23.278;2023-01-29T14:52:42;62717.94;;;1.13;100.00
21879;BME280;27908;42.708;23.278;2023-01-29T14:55:25;62752.69;;;1.20;100.00
21879;BME280;27908;42.708;23.278;2023-01-29T14:57:55;62708.19;;;0.99;100.00
21879;BME280;27908;42.708;23.278;2023-01-29T15:00:37;62686.88;;;1.15;100.00
21879;BME280;27908;42.708;23.278;2023-01-29T15:05:57;62704.94;;;1.15;100.00
21879;BME280;27908;42.708;23.278;2023-01-29T15:08:40;62717.84;;;1.06;100.00
21879;BME280;27908;42.708;23.278;2023-01-29T15:11:29;62737.97;;;1.11;100.00
21879;BME280;27908;42.708;23.278;2023-01-29T15:14:13;62690.22;;;1.04;100.00
21879;BME280;27908;42.708;23.278;2023-01-29T15:19:37;62707.19;;;1.01;100.00
21879;BME280;27908;42.708;23.278;2023-01-29T15:24:39;62695.69;;;1.02;100.00
21879;BME280;27908;42.708;23.278;2023-01-29T15:27:08;62694.00;;;0.90;100.00
21879;BME280;27908;42.708;23.278;2023-01-29T15:29:36;62754.13;;;0.88;100.00
21879;BME280;27908;42.708;23.278;2023-01-29T15:32:02;62707.19;;;0.71;100.00
21879;BME280;27908;42.708;23.278;2023-01-29T15:34:28;62687.06;;;0.67;100.00
21879;BME280;27908;42.708;23.278;2023-01-29T15:36:53;62662.50;;;0.67;100.00
21879;BME280;27908;42.708;23.278;2023-01-29T15:39:23;62639.78;;;0.57;100.00
21879;BME280;27908;42.708;23.278;2023-01-29T15:42:09;62676.94;;;0.62;100.00
21879;BME280;27908;42.708;23.278;2023-01-29T15:44:43;62613.34;;;0.63;100.00
21879;BME280;27908;42.708;23.278;2023-01-29T15:47:09;62658.00;;;0.68;100.00
21879;BME280;27908;42.708;23.278;2023-01-29T15:49:35;62662.50;;;0.67;100.00
21879;BME280;27908;42.708;23.278;2023-01-29T15:52:07;62665.09;;;0.72;100.00